Milam, West Virginia
Current Conditions -  °F | °C
As of 4:35 AM on Wednesday 22 Oct 2014 (Local Time) from K8W2 Reporting Station
Overcast Overcast  
Wind Chill: 50°   Ceiling: 2700
Heat Index: 50°   Visibility: 10mi
Dew Point: 44°   Wind: 0mph
Humidity: 79%   Direction: NA
Pressure: 29.94"   Gusts: NA
Location:  38.81°N, 79.08°W
Report Text: K8W2 220835Z AUTO 00000KT 10SM OVC027 10/07 A2994 RMK AO1 T01020067
Loading
Personal Weather Stations






























Interactive Weather Map
Tropical Storm Tracking
New forecast layout! Learn more

10-Day Weather Forecast

Advertisements
Track Severe Weather on mobile